Alsville, South Dakota
Current Conditions -  °F | °C
As of 11:53 AM on Thursday 30 Oct 2014 (Local Time) from KATY Reporting Station
Haze Haze  
Wind Chill: 34°   Ceiling: 500
Heat Index: 42°   Visibility: 4mi
Dew Point: 40°   Wind: 18mph
Humidity: 92%   Direction: 360°N
Pressure: 30.15"   Gusts: 25mph
Location:  44.5892°N, 97.2322°W
Report Text: KATY 301653Z AUTO 36016G22KT 4SM BR OVC005 06/04 A3015 RMK AO2 SLP221 T00560044
Loading
Personal Weather Stations






























Interactive Weather Map
Tropical Storm Tracking
New forecast layout! Learn more

10-Day Weather Forecast

Advertisements
Track Severe Weather on mobile